Time;durP1;ratioP1;P1;durP2;ratioP2;P2;SDS_P1;SDS_P2;PMS_P1;PMS_P2;Temp;Humidity;BMP_temperature;BMP_pressure;BME280_temperature;BME280_humidity;BME280_pressure;Samples;Min_cycle;Max_cycle;Signal;HPM_P1;HPM_P2
2022/07/10 00:00:32;;;;;;;6.60;3.50;;;;;;;16.40;67.57;100719.14;105710;1267;73906;-77
2022/07/10 00:03:06;;;;;;;4.10;3.20;;;;;;;16.49;67.87;100723.39;105763;1265;63684;-78
2022/07/10 00:05:35;;;;;;;4.70;2.90;;;;;;;16.52;67.81;100718.85;105863;1264;59720;-77
2022/07/10 00:08:05;;;;;;;5.00;3.50;;;;;;;16.54;67.10;100719.16;105826;1265;72560;-79
2022/07/10 00:10:34;;;;;;;7.30;2.90;;;;;;;16.58;67.39;100719.14;105838;1265;72384;-77
2022/07/10 00:13:03;;;;;;;4.40;2.90;;;;;;;16.56;67.18;100712.42;105869;1265;71075;-79
2022/07/10 00:15:32;;;;;;;4.10;3.20;;;;;;;16.54;65.99;100713.55;105472;1263;753453;-80
2022/07/10 00:18:01;;;;;;;6.70;3.10;;;;;;;16.53;66.23;100714.14;106015;1264;59917;-77
2022/07/10 00:20:30;;;;;;;6.90;2.60;;;;;;;16.52;66.43;100710.77;105996;1264;58825;-77
2022/07/10 00:22:59;;;;;;;3.40;2.60;;;;;;;16.53;67.71;100707.35;105956;1264;72512;-79
2022/07/10 00:25:30;;;;;;;4.20;2.60;;;;;;;16.52;66.87;100707.60;105986;1265;70708;-78
2022/07/10 00:27:59;;;;;;;3.90;2.80;;;;;;;16.44;67.08;100710.18;106043;1265;70717;-79
2022/07/10 00:30:28;;;;;;;4.10;2.70;;;;;;;16.33;67.34;100706.26;105993;1264;71690;-80
2022/07/10 00:32:58;;;;;;;4.40;3.10;;;;;;;16.28;67.47;100706.81;106050;1264;59614;-78
2022/07/10 00:35:27;;;;;;;10.50;3.70;;;;;;;16.23;68.07;100707.95;106101;1264;60240;-78
2022/07/10 00:37:56;;;;;;;18.60;5.40;;;;;;;16.19;67.81;100705.13;105946;1264;73583;-78
2022/07/10 00:40:25;;;;;;;10.00;3.80;;;;;;;16.12;67.78;100700.34;106032;1263;70220;-81
2022/07/10 00:42:53;;;;;;;265.60;53.40;;;;;;;16.08;69.29;100700.23;106006;1263;70604;-80
2022/07/10 00:45:22;;;;;;;43.10;10.60;;;;;;;16.10;69.13;100695.77;106020;1264;72423;-77
2022/07/10 00:47:51;;;;;;;65.60;23.10;;;;;;;16.13;68.96;100695.65;106007;1264;61379;-78
2022/07/10 00:50:20;;;;;;;15.20;6.60;;;;;;;16.15;68.89;100694.95;105909;1265;61066;-79
2022/07/10 00:52:49;;;;;;;14.10;6.50;;;;;;;16.13;67.72;100692.74;105970;1265;73323;-76
2022/07/10 00:55:18;;;;;;;21.90;8.30;;;;;;;16.13;68.24;100691.33;105978;1264;72354;-76
2022/07/10 00:57:48;;;;;;;7.90;4.30;;;;;;;16.18;68.54;100687.89;105888;1265;70531;-77
2022/07/10 01:00:18;;;;;;;20.70;7.50;;;;;;;16.20;68.85;100687.71;106016;1264;73827;-78
2022/07/10 01:02:47;;;;;;;14.50;5.30;;;;;;;16.21;68.63;100684.30;106117;1263;59653;-78
2022/07/10 01:05:16;;;;;;;8.30;3.60;;;;;;;16.22;68.22;100685.27;106224;1263;60381;-78
2022/07/10 01:07:44;;;;;;;7.90;3.90;;;;;;;16.23;68.76;100686.14;105967;1264;75638;-78
2022/07/10 01:10:13;;;;;;;7.20;3.60;;;;;;;16.20;68.20;100680.11;106017;1263;69557;-77
2022/07/10 01:12:42;;;;;;;7.10;3.90;;;;;;;16.20;69.27;100681.13;106073;1263;69794;-79
2022/07/10 01:15:11;;;;;;;6.00;3.70;;;;;;;16.16;68.75;100678.09;105828;1266;72739;-78
2022/07/10 01:17:40;;;;;;;5.70;3.30;;;;;;;16.07;68.68;100676.77;106061;1264;61280;-76
2022/07/10 01:20:10;;;;;;;4.60;3.10;;;;;;;15.96;69.08;100675.35;105926;1264;59034;-77
2022/07/10 01:22:39;;;;;;;4.30;2.80;;;;;;;15.82;69.56;100670.60;105963;1263;74545;-78
2022/07/10 01:25:08;;;;;;;4.60;2.90;;;;;;;15.64;70.23;100669.45;105896;1263;73301;-81
2022/07/10 01:27:37;;;;;;;6.40;3.40;;;;;;;15.48;70.99;100671.63;105894;1264;71083;-79
2022/07/10 01:30:07;;;;;;;3.70;2.90;;;;;;;15.33;71.18;100668.27;105904;1264;74285;-80
2022/07/10 01:32:41;;;;;;;6.20;3.50;;;;;;;15.24;71.85;100673.59;105934;1264;62292;-79
2022/07/10 01:35:11;;;;;;;5.50;3.60;;;;;;;15.12;72.29;100672.17;105876;1264;62005;-77
2022/07/10 01:37:40;;;;;;;5.00;3.50;;;;;;;15.05;72.10;100671.04;105831;1264;75162;-76
2022/07/10 01:40:10;;;;;;;4.00;2.90;;;;;;;15.02;72.40;100669.11;105708;1267;72774;-78
2022/07/10 01:42:39;;;;;;;7.10;3.40;;;;;;;15.01;72.71;100670.57;105875;1264;69432;-79
2022/07/10 01:45:09;;;;;;;7.90;3.70;;;;;;;14.98;73.05;100670.14;105660;1267;74441;-77
2022/07/10 01:47:38;;;;;;;6.30;3.70;;;;;;;14.95;72.83;100673.58;105806;1266;59547;-79
2022/07/10 01:50:07;;;;;;;5.30;3.70;;;;;;;14.96;73.18;100671.39;105885;1264;61380;-78
2022/07/10 01:52:36;;;;;;;7.40;3.60;;;;;;;15.11;73.67;100670.53;105885;1264;73306;-77
2022/07/10 01:55:06;;;;;;;6.90;3.80;;;;;;;15.29;73.04;100662.36;107448;1263;69631;-78
2022/07/10 01:57:35;;;;;;;6.00;3.40;;;;;;;15.34;72.68;100663.98;107463;1263;69014;-77
2022/07/10 02:00:05;;;;;;;11.70;3.90;;;;;;;15.38;72.46;100668.38;106155;1264;73232;-78
2022/07/10 02:02:39;;;;;;;7.70;3.80;;;;;;;15.35;71.97;100666.05;106442;1263;59622;-77
2022/07/10 02:05:08;;;;;;;7.60;3.50;;;;;;;15.30;71.80;100667.01;107133;1263;59076;-76
2022/07/10 02:07:37;;;;;;;5.90;4.00;;;;;;;15.29;72.14;100669.56;106574;1267;73112;-76
2022/07/10 02:10:06;;;;;;;9.10;4.80;;;;;;;15.27;72.14;100668.34;106408;1264;71524;-77
2022/07/10 02:12:35;;;;;;;4.50;3.50;;;;;;;15.27;72.35;100669.56;106200;1263;69207;-78
2022/07/10 02:15:05;;;;;;;15.30;5.10;;;;;;;15.24;72.43;100667.38;105868;1263;74761;-76
2022/07/10 02:17:33;;;;;;;5.50;3.80;;;;;;;15.24;72.91;100668.13;105981;1264;61868;-77
2022/07/10 02:20:02;;;;;;;7.60;4.30;;;;;;;15.24;72.32;100667.11;106026;1263;59604;-77
2022/07/10 02:22:31;;;;;;;10.00;4.60;;;;;;;15.23;72.49;100667.70;106078;1264;71852;-78
2022/07/10 02:25:00;;;;;;;6.60;4.10;;;;;;;15.20;72.38;100663.73;105997;1264;72398;-79
2022/07/10 02:27:28;;;;;;;6.40;4.20;;;;;;;15.15;72.74;100666.52;106051;1264;69257;-76
2022/07/10 02:29:57;;;;;;;9.00;3.90;;;;;;;15.10;71.95;100666.55;106028;1264;73084;-76
2022/07/10 02:32:26;;;;;;;16.70;6.70;;;;;;;15.07;72.93;100668.77;105970;1264;61117;-76
2022/07/10 02:34:55;;;;;;;14.40;6.20;;;;;;;15.04;73.57;100666.40;106002;1263;62453;-77
2022/07/10 02:37:23;;;;;;;16.60;6.60;;;;;;;15.00;73.49;100665.20;106022;1264;73162;-78
2022/07/10 02:39:52;;;;;;;12.30;5.80;;;;;;;14.97;73.19;100667.76;106123;1263;70425;-76
2022/07/10 02:42:20;;;;;;;5.90;3.50;;;;;;;14.97;73.73;100667.80;105944;1263;70769;-77
2022/07/10 02:44:49;;;;;;;8.10;3.60;;;;;;;14.99;73.29;100670.09;106132;1263;72019;-77
2022/07/10 02:47:19;;;;;;;5.80;3.50;;;;;;;15.05;74.51;100667.53;106184;1263;60444;-76
2022/07/10 02:49:47;;;;;;;10.80;4.80;;;;;;;15.14;74.25;100664.08;106015;1264;60554;-79
2022/07/10 02:52:16;;;;;;;6.40;4.30;;;;;;;15.23;74.43;100662.60;106047;1264;71631;-80
2022/07/10 02:54:45;;;;;;;7.60;4.20;;;;;;;15.30;73.82;100666.61;106043;1263;70857;-79
2022/07/10 02:57:14;;;;;;;18.70;4.80;;;;;;;15.39;73.83;100668.61;106037;1264;69785;-77
2022/07/10 02:59:42;;;;;;;5.70;3.20;;;;;;;15.47;73.48;100670.73;106271;1266;73814;-77
2022/07/10 03:02:11;;;;;;;11.20;6.90;;;;;;;15.56;73.37;100672.99;106073;1263;63483;-76
2022/07/10 03:04:41;;;;;;;6.10;3.50;;;;;;;15.65;73.42;100669.42;106063;1264;61421;-77
2022/07/10 03:07:10;;;;;;;10.50;3.40;;;;;;;15.73;73.34;100670.03;106062;1264;75940;-78
2022/07/10 03:09:42;;;;;;;5.90;3.60;;;;;;;15.80;72.83;100670.39;105908;1263;72941;-76
2022/07/10 03:12:10;;;;;;;10.50;4.10;;;;;;;15.91;72.90;100672.16;106005;1263;70736;-77
2022/07/10 03:14:39;;;;;;;8.80;4.70;;;;;;;16.00;73.22;100675.02;105966;1263;72041;-77
2022/07/10 03:17:08;;;;;;;6.40;3.80;;;;;;;16.10;72.57;100674.06;106067;1263;62192;-79
2022/07/10 03:19:36;;;;;;;7.80;3.80;;;;;;;16.18;72.09;100676.41;106121;1263;59395;-79
2022/07/10 03:22:05;;;;;;;5.70;3.70;;;;;;;16.25;71.53;100680.39;106098;1263;72611;-79
2022/07/10 03:24:33;;;;;;;4.10;3.50;;;;;;;16.27;71.26;100683.66;106149;1263;72285;-77
2022/07/10 03:27:03;;;;;;;5.80;3.00;;;;;;;16.31;71.48;100687.61;106115;1264;69401;-78
2022/07/10 03:29:32;;;;;;;5.80;3.10;;;;;;;16.33;71.47;100691.98;106015;1263;72855;-79
2022/07/10 03:32:00;;;;;;;6.90;3.60;;;;;;;16.33;71.30;100692.94;106084;1263;62989;-78
2022/07/10 03:34:30;;;;;;;6.00;3.50;;;;;;;16.33;71.33;100691.33;106235;1263;60345;-78
2022/07/10 03:36:58;;;;;;;8.70;4.90;;;;;;;16.33;71.20;100685.69;105959;1266;75068;-79
2022/07/10 03:39:27;;;;;;;5.60;3.60;;;;;;;16.36;70.72;100683.85;106258;1263;72178;-78
2022/07/10 03:41:56;;;;;;;5.20;3.40;;;;;;;16.38;70.39;100685.55;106274;1262;69827;-79
2022/07/10 03:44:24;;;;;;;7.70;3.70;;;;;;;16.38;70.20;100684.20;106115;1264;74437;-78
2022/07/10 03:46:53;;;;;;;6.60;3.30;;;;;;;16.37;70.89;100676.31;106216;1264;62171;-77
2022/07/10 03:49:22;;;;;;;8.40;3.50;;;;;;;16.48;70.59;100676.88;106189;1263;59802;-80
2022/07/10 03:51:51;;;;;;;5.00;3.50;;;;;;;16.54;70.51;100677.16;106186;1263;73933;-80
2022/07/10 03:54:20;;;;;;;14.20;4.00;;;;;;;16.60;70.20;100676.92;106228;1264;72745;-80
2022/07/10 03:59:36;;;;;;;7.10;3.60;;;;;;;16.69;69.93;100667.61;106110;1262;75884;-76
2022/07/10 04:02:05;;;;;;;3.70;2.80;;;;;;;16.73;69.87;100671.63;106356;1263;60600;-78
2022/07/10 04:04:34;;;;;;;5.30;3.40;;;;;;;16.80;69.65;100672.00;106290;1263;60636;-79
2022/07/10 04:07:06;;;;;;;6.60;3.30;;;;;;;16.79;69.69;100671.59;106221;1264;72535;-78
2022/07/10 04:09:35;;;;;;;7.10;3.40;;;;;;;16.73;69.95;100669.52;106280;1263;70415;-78
2022/07/10 04:12:04;;;;;;;5.40;3.00;;;;;;;16.73;69.94;100668.69;106307;1264;69770;-78
2022/07/10 04:14:33;;;;;;;4.70;3.00;;;;;;;16.81;69.56;100672.61;106260;1262;71422;-77
2022/07/10 04:17:02;;;;;;;5.60;3.10;;;;;;;16.85;69.18;100669.36;106247;1262;61380;-80
2022/07/10 04:19:30;;;;;;;5.30;3.40;;;;;;;16.96;68.75;100675.16;106141;1264;61730;-79
2022/07/10 04:21:59;;;;;;;5.40;2.90;;;;;;;17.07;68.21;100672.66;106244;1264;73563;-79
2022/07/10 04:24:28;;;;;;;7.00;3.40;;;;;;;17.18;67.68;100676.39;106253;1262;70410;-80
2022/07/10 04:26:56;;;;;;;5.60;3.10;;;;;;;17.27;67.10;100670.64;106238;1262;70577;-81
2022/07/10 04:29:25;;;;;;;5.50;2.90;;;;;;;17.36;66.64;100665.67;106241;1264;72446;-78
2022/07/10 04:31:54;;;;;;;6.10;3.00;;;;;;;17.40;66.22;100662.98;106329;1262;59537;-79
2022/07/10 04:34:23;;;;;;;5.50;3.20;;;;;;;17.48;65.85;100663.00;106267;1262;60479;-80
2022/07/10 04:36:51;;;;;;;5.50;3.30;;;;;;;17.54;65.55;100659.93;106234;1264;75179;-79
2022/07/10 04:39:21;;;;;;;5.00;3.00;;;;;;;17.60;65.23;100657.38;106250;1264;70320;-79
2022/07/10 04:41:50;;;;;;;6.70;3.40;;;;;;;17.68;64.70;100658.52;106316;1262;67231;-80
2022/07/10 04:44:19;;;;;;;4.30;3.30;;;;;;;17.83;64.49;100653.98;106131;1262;74088;-78
2022/07/10 04:46:47;;;;;;;6.40;3.20;;;;;;;17.95;63.81;100650.57;106085;1264;61084;-80
2022/07/10 04:49:16;;;;;;;4.00;2.40;;;;;;;18.12;62.87;100645.33;106028;1263;61053;-78
2022/07/10 04:51:45;;;;;;;3.90;2.50;;;;;;;18.29;61.92;100640.80;106093;1262;63700;-79
2022/07/10 04:54:14;;;;;;;4.20;2.20;;;;;;;18.43;61.50;100642.31;105981;1263;61860;-79
2022/07/10 04:56:43;;;;;;;4.40;1.90;;;;;;;18.58;60.50;100641.27;106109;1262;59558;-80
2022/07/10 04:59:12;;;;;;;4.30;2.20;;;;;;;18.72;60.12;100636.58;106067;1262;63325;-79
2022/07/10 05:01:42;;;;;;;4.50;2.20;;;;;;;18.79;59.87;100634.49;105992;1263;60328;-80
2022/07/10 05:04:11;;;;;;;3.30;2.20;;;;;;;18.86;59.90;100637.80;106114;1262;61102;-81
2022/07/10 05:06:39;;;;;;;3.60;2.20;;;;;;;18.90;59.85;100631.85;106072;1263;74341;-80
2022/07/10 05:09:08;;;;;;;7.30;2.20;;;;;;;18.89;59.55;100631.59;106078;1262;61490;-80
2022/07/10 05:11:37;;;;;;;6.30;2.10;;;;;;;18.88;59.34;100636.69;106457;1262;69756;-78
2022/07/10 05:14:06;;;;;;;6.20;2.30;;;;;;;18.79;59.62;100632.27;107663;1262;64122;-75
2022/07/10 05:16:34;;;;;;;3.10;2.00;;;;;;;18.77;59.77;100623.68;107108;1263;60536;-80
2022/07/10 05:19:03;;;;;;;3.80;2.40;;;;;;;18.86;59.63;100626.33;106730;1262;59124;-80
2022/07/10 05:21:32;;;;;;;4.70;2.50;;;;;;;18.95;59.42;100622.30;106868;1262;73263;-79
2022/07/10 05:24:01;;;;;;;4.10;1.90;;;;;;;19.02;59.13;100626.28;106486;1262;72128;-81
2022/07/10 05:26:30;;;;;;;4.80;2.30;;;;;;;19.10;58.82;100620.17;106493;1262;60002;-81
2022/07/10 05:28:58;;;;;;;6.00;2.30;;;;;;;19.14;58.46;100621.48;106339;1262;74000;-78
2022/07/10 05:31:27;;;;;;;3.20;2.00;;;;;;;19.14;58.26;100622.84;106284;1262;59627;-79
2022/07/10 05:33:56;;;;;;;4.50;2.30;;;;;;;19.13;58.02;100614.21;106541;1262;59586;-78
2022/07/10 05:36:25;;;;;;;3.00;2.20;;;;;;;19.14;58.09;100617.13;106436;1262;63889;-78
2022/07/10 05:38:53;;;;;;;3.60;2.30;;;;;;;19.17;57.78;100619.69;106178;1263;71584;-79
2022/07/10 05:41:22;;;;;;;2.90;2.00;;;;;;;19.17;57.73;100611.02;106290;1259;71504;-79
2022/07/10 05:43:51;;;;;;;4.50;2.00;;;;;;;19.20;57.60;100608.44;106302;1262;63715;-78
2022/07/10 05:46:20;;;;;;;6.60;2.80;;;;;;;19.27;57.50;100608.72;106295;1262;60852;-80
2022/07/10 05:48:49;;;;;;;5.30;2.10;;;;;;;19.39;57.40;100610.64;106245;1262;60143;-80
2022/07/10 05:51:17;;;;;;;4.80;2.20;;;;;;;19.42;56.76;100609.05;106319;1263;64814;-78
2022/07/10 05:54:06;;;;;;;4.00;2.00;;;;;;;19.45;56.80;100604.45;106321;1262;60878;-80
2022/07/10 05:56:35;;;;;;;4.00;2.00;;;;;;;19.54;56.25;100608.23;106347;1263;69757;-80
2022/07/10 05:59:04;;;;;;;5.50;2.40;;;;;;;19.67;56.10;100604.26;106076;1266;74162;-80
2022/07/10 06:01:33;;;;;;;5.80;2.10;;;;;;;19.81;55.57;100608.84;106272;1262;60518;-80
2022/07/10 06:04:02;;;;;;;8.00;2.10;;;;;;;19.90;54.83;100606.16;106182;1264;63259;-80
2022/07/10 06:06:31;;;;;;;3.50;2.10;;;;;;;19.89;54.73;100601.58;106280;1263;63455;-81
2022/07/10 06:09:00;;;;;;;2.80;1.60;;;;;;;19.97;54.90;100597.20;106258;1264;72428;-81
2022/07/10 06:11:29;;;;;;;3.90;2.00;;;;;;;20.10;54.27;100595.13;106633;1263;70259;-81
2022/07/10 06:13:57;;;;;;;6.30;2.10;;;;;;;20.26;53.86;100596.15;106772;1263;64726;-81
2022/07/10 06:16:26;;;;;;;2.40;1.80;;;;;;;20.39;53.05;100592.67;106606;1263;59565;-83
2022/07/10 06:18:55;;;;;;;6.20;2.20;;;;;;;20.46;52.27;100591.09;106601;1263;58075;-79
2022/07/10 06:21:24;;;;;;;2.50;1.70;;;;;;;20.59;51.60;100588.23;106717;1263;63028;-82
2022/07/10 06:23:53;;;;;;;2.60;1.50;;;;;;;20.71;51.72;100584.04;106638;1263;72432;-81
2022/07/10 06:26:21;;;;;;;2.80;1.50;;;;;;;20.82;51.62;100584.64;106527;1263;59667;-78
2022/07/10 06:28:50;;;;;;;5.60;1.70;;;;;;;20.92;51.19;100580.30;106276;1264;62565;-79
2022/07/10 06:31:19;;;;;;;5.40;1.90;;;;;;;20.96;51.16;100570.59;106283;1265;57987;-81
2022/07/10 06:33:48;;;;;;;2.60;1.80;;;;;;;21.05;51.05;100570.67;106554;1263;58964;-83
2022/07/10 06:36:17;;;;;;;3.30;1.70;;;;;;;21.05;50.70;100571.12;106607;1263;75429;-81
2022/07/10 06:38:52;;;;;;;6.00;1.90;;;;;;;21.23;50.59;100578.64;106323;1263;71642;-79
2022/07/10 06:41:20;;;;;;;4.50;1.90;;;;;;;21.11;50.55;100574.39;106230;1262;71410;-79
2022/07/10 06:43:49;;;;;;;6.20;2.10;;;;;;;20.91;51.36;100574.77;106213;1263;73861;-79
2022/07/10 06:46:18;;;;;;;3.20;1.60;;;;;;;20.99;51.17;100573.97;106365;1263;59519;-81
2022/07/10 06:48:47;;;;;;;5.20;1.70;;;;;;;21.00;50.68;100568.79;106313;1263;59824;-81
2022/07/10 06:51:16;;;;;;;3.30;1.80;;;;;;;20.99;51.02;100564.06;106284;1263;63578;-80
2022/07/10 06:53:46;;;;;;;4.80;2.10;;;;;;;21.00;50.72;100563.81;106336;1263;70264;-80
2022/07/10 06:56:16;;;;;;;7.50;2.20;;;;;;;21.07;50.62;100562.41;106215;1263;60621;-77
2022/07/10 06:58:44;;;;;;;4.00;1.60;;;;;;;21.21;50.20;100566.98;106257;1263;73111;-80
2022/07/10 07:01:16;;;;;;;3.30;1.40;;;;;;;21.37;49.10;100568.98;106287;1263;60977;-82
2022/07/10 07:03:44;;;;;;;4.00;1.90;;;;;;;21.33;48.65;100562.34;106337;1263;62183;-80
2022/07/10 07:06:13;;;;;;;3.00;1.60;;;;;;;21.34;48.74;100558.66;106348;1263;63380;-82
2022/07/10 07:08:42;;;;;;;2.60;1.50;;;;;;;21.37;47.96;100557.61;106458;1263;61745;-79
2022/07/10 07:11:11;;;;;;;5.00;1.90;;;;;;;21.43;48.26;100556.05;106354;1264;59623;-80
2022/07/10 07:13:40;;;;;;;7.40;1.70;;;;;;;21.57;48.40;100548.59;106380;1263;73233;-82
2022/07/10 07:16:09;;;;;;;3.80;1.40;;;;;;;21.74;47.91;100549.43;106348;1264;60196;-81
2022/07/10 07:18:47;;;;;;;2.80;1.70;;;;;;;21.77;47.39;100543.52;106548;1263;59122;-81
2022/07/10 07:24:05;;;;;;;2.80;1.20;;;;;;;22.01;46.67;100527.08;106317;1264;60893;-81
2022/07/10 07:26:33;;;;;;;4.50;1.60;;;;;;;22.07;46.67;100524.45;106645;1263;69903;-80
2022/07/10 07:29:02;;;;;;;5.50;1.30;;;;;;;22.12;46.58;100522.42;106436;1263;64138;-81
2022/07/10 07:31:31;;;;;;;2.70;1.20;;;;;;;22.14;45.96;100523.48;106372;1263;58039;-83
2022/07/10 07:34:00;;;;;;;5.70;1.70;;;;;;;22.21;45.87;100515.73;106385;1263;60495;-74
2022/07/10 07:36:30;;;;;;;7.90;1.50;;;;;;;22.35;45.70;100513.60;106092;1264;75221;-72
2022/07/10 07:38:59;;;;;;;3.20;1.40;;;;;;;22.50;45.09;100515.47;106116;1264;61321;-74
2022/07/10 07:41:28;;;;;;;3.20;1.40;;;;;;;22.41;44.97;100518.18;106138;1263;59587;-73
2022/07/10 07:43:57;;;;;;;2.70;1.40;;;;;;;22.36;45.31;100521.47;106357;1265;62470;-76
2022/07/10 07:46:26;;;;;;;3.90;1.40;;;;;;;22.54;45.06;100519.60;106083;1262;60510;-74
2022/07/10 07:48:55;;;;;;;5.30;1.60;;;;;;;22.65;45.08;100517.34;105762;1267;59651;-73
2022/07/10 07:51:24;;;;;;;3.10;1.60;;;;;;;22.80;44.95;100520.52;106118;1263;63187;-75
2022/07/10 07:53:53;;;;;;;3.70;1.60;;;;;;;22.90;44.42;100515.08;106101;1263;71795;-72
2022/07/10 07:56:21;;;;;;;3.30;1.70;;;;;;;22.92;44.71;100515.41;106436;1263;71501;-74
2022/07/10 07:58:50;;;;;;;3.90;1.80;;;;;;;22.87;44.33;100512.21;106042;1262;73230;-75
2022/07/10 08:01:19;;;;;;;3.00;2.00;;;;;;;23.00;44.08;100512.38;106081;1262;59022;-75
2022/07/10 08:03:48;;;;;;;4.10;2.00;;;;;;;23.00;44.27;100504.19;105986;1263;59489;-73
2022/07/10 08:06:37;;;;;;;6.60;1.50;;;;;;;23.09;44.21;100510.14;105841;1263;75052;-73
2022/07/10 08:09:06;;;;;;;5.70;1.70;;;;;;;23.25;43.28;100507.67;106037;1263;71971;-75
2022/07/10 08:11:34;;;;;;;3.00;1.40;;;;;;;23.31;42.93;100498.02;106004;1264;70847;-73
2022/07/10 08:14:03;;;;;;;3.00;1.70;;;;;;;23.33;43.32;100492.95;105795;1264;74581;-73
2022/07/10 08:16:32;;;;;;;4.60;1.50;;;;;;;23.43;42.98;100500.36;106015;1263;59670;-73
2022/07/10 08:19:02;;;;;;;3.30;1.30;;;;;;;23.51;42.80;100497.03;107079;1264;58619;-74
2022/07/10 08:21:31;;;;;;;5.50;1.30;;;;;;;23.55;42.16;100494.41;106950;1263;74955;-73
2022/07/10 08:24:01;;;;;;;2.90;1.10;;;;;;;23.57;41.90;100491.11;106837;1263;61417;-73
2022/07/10 08:26:30;;;;;;;2.20;1.10;;;;;;;23.86;41.72;100488.61;106401;1263;69898;-74
2022/07/10 08:28:59;;;;;;;3.00;1.50;;;;;;;23.81;41.32;100489.17;106350;1263;73820;-73
2022/07/10 08:31:28;;;;;;;3.10;1.20;;;;;;;23.52;42.03;100485.22;106130;1264;60862;-72
2022/07/10 08:33:56;;;;;;;5.40;1.40;;;;;;;23.44;42.58;100478.84;106129;1262;60055;-72
2022/07/10 08:36:26;;;;;;;4.20;1.40;;;;;;;23.61;42.36;100483.78;106097;1262;75561;-74
2022/07/10 08:39:08;;;;;;;5.00;1.60;;;;;;;23.70;41.64;100483.70;106188;1262;72755;-75
2022/07/10 08:41:38;;;;;;;4.50;1.60;;;;;;;23.67;41.71;100481.05;106349;1262;60300;-74
2022/07/10 08:44:07;;;;;;;3.10;1.30;;;;;;;23.84;41.63;100473.16;106121;1264;63372;-75
2022/07/10 08:46:42;;;;;;;5.00;1.60;;;;;;;24.05;40.92;100472.08;105971;1263;59670;-71
2022/07/10 08:49:13;;;;;;;4.40;1.30;;;;;;;24.25;40.47;100469.21;106068;1263;59598;-75
2022/07/10 08:52:05;;;;;;;3.30;1.40;;;;;;;24.72;39.95;100471.64;105955;1262;63884;-72
2022/07/10 08:54:35;;;;;;;2.60;1.40;;;;;;;24.80;39.48;100471.09;106025;1263;61697;-72
2022/07/10 08:57:05;;;;;;;2.70;1.60;;;;;;;24.54;39.52;100467.86;105954;1264;71068;-72
2022/07/10 08:59:34;;;;;;;4.00;1.40;;;;;;;24.31;40.60;100467.33;106001;1263;74508;-74
2022/07/10 09:02:03;;;;;;;8.20;1.90;;;;;;;24.26;40.06;100469.62;106116;1262;61084;-74
2022/07/10 09:04:32;;;;;;;2.80;1.30;;;;;;;24.25;40.03;100467.98;106033;1262;60099;-74
2022/07/10 09:07:01;;;;;;;2.70;1.70;;;;;;;24.27;40.20;100466.77;106104;1262;63841;-77
2022/07/10 09:09:30;;;;;;;3.70;1.60;;;;;;;24.24;40.29;100467.81;105975;1264;63556;-80
2022/07/10 09:12:00;;;;;;;3.30;1.60;;;;;;;24.27;39.83;100463.27;106151;1262;70630;-76
2022/07/10 09:14:29;;;;;;;4.50;1.30;;;;;;;24.19;40.00;100456.20;107935;1263;73790;-77
2022/07/10 09:17:03;;;;;;;4.20;1.50;;;;;;;24.48;40.05;100457.32;106018;1262;61678;-78
2022/07/10 09:19:32;;;;;;;2.10;1.30;;;;;;;24.67;38.91;100455.77;106857;1262;59608;-73
2022/07/10 09:22:08;;;;;;;2.70;1.40;;;;;;;24.70;38.47;100450.00;106129;1262;63905;-75
2022/07/10 09:24:44;;;;;;;3.50;1.30;;;;;;;24.86;38.75;100445.39;106151;1262;60842;-73
2022/07/10 09:27:15;;;;;;;5.50;1.70;;;;;;;24.89;38.79;100446.85;106167;1263;68765;-73
2022/07/10 09:29:51;;;;;;;3.90;1.40;;;;;;;24.90;38.77;100453.09;106181;1263;64266;-72
2022/07/10 09:32:21;;;;;;;3.00;1.40;;;;;;;24.75;39.05;100445.54;106325;1263;61197;-73
2022/07/10 09:38:07;;;;;;;4.00;1.40;;;;;;;25.34;37.93;100429.90;106119;1263;75330;-78
2022/07/10 09:40:36;;;;;;;1.90;1.40;;;;;;;25.30;36.67;100435.31;106391;1263;72831;-78
2022/07/10 09:43:06;;;;;;;8.10;1.80;;;;;;;25.36;36.09;100432.11;106440;1263;60677;-82
2022/07/10 09:45:35;;;;;;;5.40;1.60;;;;;;;25.32;36.32;100433.34;106421;1263;62460;-81
2022/07/10 09:48:05;;;;;;;2.20;1.70;;;;;;;25.43;36.73;100440.83;106362;1263;62286;-81
2022/07/10 09:50:36;;;;;;;3.80;1.80;;;;;;;25.31;37.36;100440.36;106438;1263;60939;-79
2022/07/10 09:53:12;;;;;;;5.90;1.80;;;;;;;25.19;37.83;100438.95;106494;1263;74223;-78
2022/07/10 09:55:44;;;;;;;3.30;1.60;;;;;;;24.92;38.42;100441.05;106241;1263;72463;-78
2022/07/10 09:58:17;;;;;;;4.70;1.80;;;;;;;24.71;38.59;100437.42;106886;1263;71046;-83
2022/07/10 10:00:46;;;;;;;2.70;1.60;;;;;;;24.49;38.85;100426.67;106647;1263;73668;-75
2022/07/10 10:03:18;;;;;;;3.10;1.70;;;;;;;24.51;38.96;100421.11;106845;1264;61152;-80
2022/07/10 10:05:56;;;;;;;5.30;1.60;;;;;;;24.57;39.01;100419.00;106683;1262;59779;-80
2022/07/10 10:08:30;;;;;;;2.50;1.40;;;;;;;24.82;38.33;100422.30;106576;1262;74896;-79
2022/07/10 10:11:01;;;;;;;3.80;1.30;;;;;;;24.71;38.26;100425.41;106504;1261;61921;-81
2022/07/10 10:13:33;;;;;;;3.10;1.40;;;;;;;24.69;37.61;100419.06;106312;1262;71860;-75
2022/07/10 10:16:03;;;;;;;3.70;1.90;;;;;;;24.63;37.40;100406.30;106513;1263;63761;-80
2022/07/10 10:18:33;;;;;;;4.10;1.90;;;;;;;24.75;37.13;100407.16;107031;1263;61371;-82
2022/07/10 10:21:06;;;;;;;3.50;1.60;;;;;;;24.84;36.61;100397.10;106455;1263;61916;-80
2022/07/10 10:23:35;;;;;;;2.40;1.40;;;;;;;25.02;36.62;100398.55;106471;1263;63600;-77
2022/07/10 10:26:04;;;;;;;2.00;1.50;;;;;;;25.14;36.27;100395.85;106589;1264;61028;-76
2022/07/10 10:28:33;;;;;;;3.70;1.50;;;;;;;25.27;35.72;100406.26;106886;1263;59148;-81
2022/07/10 10:31:03;;;;;;;2.70;1.50;;;;;;;25.18;35.79;100399.52;107173;1263;62404;-84
2022/07/10 10:33:32;;;;;;;3.20;1.50;;;;;;;25.31;35.71;100393.44;107612;1263;59536;-76
2022/07/10 10:36:14;;;;;;;2.00;1.20;;;;;;;25.66;35.78;100389.59;107168;1262;60558;-81
2022/07/10 10:38:49;;;;;;;3.50;1.50;;;;;;;26.11;34.81;100398.86;106817;1262;73654;-73
2022/07/10 10:41:27;;;;;;;2.60;1.30;;;;;;;26.39;33.50;100395.93;106697;1262;60817;-79
2022/07/10 10:44:08;;;;;;;3.30;1.50;;;;;;;26.62;32.82;100390.30;106786;1261;69818;-78
2022/07/10 10:47:07;;;;;;;4.80;1.30;;;;;;;26.76;32.63;100386.30;107853;1261;62937;-79
2022/07/10 10:49:53;;;;;;;2.90;1.00;;;;;;;26.65;31.73;100387.66;107754;1261;58205;-76
2022/07/10 10:52:24;;;;;;;2.00;1.10;;;;;;;26.26;31.76;100381.96;106975;1262;61442;-80
2022/07/10 10:54:56;;;;;;;2.20;1.10;;;;;;;26.60;31.11;100376.91;107218;1263;63998;-82
2022/07/10 10:57:32;;;;;;;6.20;1.20;;;;;;;26.96;30.68;100374.70;106561;1263;61847;-79
2022/07/10 11:00:06;;;;;;;4.70;1.40;;;;;;;27.42;29.57;100374.86;107184;1263;68461;-75
2022/07/10 11:02:39;;;;;;;5.50;1.40;;;;;;;27.36;29.03;100378.25;106628;1264;63690;-83
2022/07/10 11:05:11;;;;;;;2.70;1.10;;;;;;;27.40;29.42;100372.23;106985;1262;60460;-81
2022/07/10 11:07:58;;;;;;;2.10;1.20;;;;;;;27.54;29.14;100371.30;106996;1261;60944;-80
2022/07/10 11:10:39;;;;;;;1.70;1.10;;;;;;;27.76;28.68;100369.38;107264;1261;63472;-73
2022/07/10 11:13:17;;;;;;;4.90;1.40;;;;;;;28.05;28.11;100368.70;106396;1263;60969;-78
2022/07/10 11:15:52;;;;;;;3.10;1.30;;;;;;;28.06;27.65;100366.30;106169;1264;69852;-75
2022/07/10 11:18:22;;;;;;;3.70;1.20;;;;;;;27.87;27.61;100367.66;106144;1263;74106;-76
2022/07/10 11:20:55;;;;;;;3.30;1.50;;;;;;;28.39;27.28;100358.38;106268;1263;62129;-78
2022/07/10 11:24:11;;;;;;;4.40;1.30;;;;;;;28.57;27.07;100362.89;106357;1263;59560;-78
2022/07/10 11:27:06;;;;;;;3.70;1.30;;;;;;;28.59;27.12;100365.15;106703;1263;73685;-78
2022/07/10 11:29:39;;;;;;;3.40;1.00;;;;;;;28.58;26.59;100360.02;107080;1263;72303;-79
2022/07/10 11:32:08;;;;;;;2.20;1.20;;;;;;;28.57;26.67;100354.84;106829;1263;59692;-80
2022/07/10 11:34:37;;;;;;;4.00;1.20;;;;;;;28.67;26.36;100356.65;106703;1264;63857;-79
2022/07/10 11:37:16;;;;;;;5.10;1.10;;;;;;;28.49;26.86;100355.01;106645;1263;60886;-77
2022/07/10 11:39:45;;;;;;;5.50;1.50;;;;;;;29.08;26.54;100342.81;106380;1264;59567;-76